MUZ weather

Muzo Airport
Muzo, Boyacá Department, Colombia

Public forecast

Using degrees Celsius for public forecast. Weather courtesy of forecast.io.

Closest aviation weather report (METAR) to Muzo Airport

Report is more than 6 hours old.

Closest report is Guaymaral Airport, 44.2 nm (81.9 km) S. Retrieved 2019/12/03 11:00 UTC (12 days ago):

SKGY 031100Z 01007KT 9000 VCFG FEW018 FEW060 09/08 A3034

Closest aviation forecast (TAF) to Muzo Airport

Closest forecast is El Dorado International Airport, 50.8 nm (94.1 km) S. Retrieved 2019/12/15 06:44 UTC (4 hours ago):

TAF SKBO 150430Z 1506/1606 VRB02KT 3000 BR SCT010 BKN070 PROB40 TEMPO 1508/1513 0100 FG VV/// BECMG 1514/1516 27008KT 9999 NSW PROB40 TEMPO 1519/1523 5000 TSRA SCT017CB TX19/1518Z TN09/1511Z